createdAt,value
2023-04-25T00:00:12.617Z,10.30
2023-04-25T00:05:16.429Z,10.20
2023-04-25T00:10:19.999Z,10.00
2023-04-25T00:15:22.475Z,9.90
2023-04-25T00:20:25.868Z,9.80
2023-04-25T00:25:28.650Z,9.80
2023-04-25T00:30:31.056Z,9.60
2023-04-25T00:35:33.751Z,9.60
2023-04-25T00:40:36.685Z,9.50
2023-04-25T00:45:41.169Z,9.40
2023-04-25T00:50:51.458Z,9.30
2023-04-25T00:55:54.914Z,9.30
2023-04-25T01:00:59.102Z,9.30
2023-04-25T01:06:02.765Z,9.30
2023-04-25T01:11:05.655Z,9.30
2023-04-25T01:16:08.254Z,9.30
2023-04-25T01:21:12.200Z,9.30
2023-04-25T01:26:15.547Z,9.20
2023-04-25T01:31:20.662Z,9.20
2023-04-25T01:36:23.702Z,9.20
2023-04-25T01:41:26.429Z,9.10
2023-04-25T01:46:29.822Z,9.10
2023-04-25T01:51:32.758Z,9.00
2023-04-25T01:56:38.905Z,9.00
2023-04-25T02:01:43.705Z,9.10
2023-04-25T02:06:58.086Z,9.00
2023-04-25T02:12:10.909Z,9.10
2023-04-25T02:17:32.802Z,9.00
2023-04-25T02:22:36.524Z,8.90
2023-04-25T02:27:41.715Z,8.90
2023-04-25T02:32:44.569Z,8.80
2023-04-25T02:37:47.060Z,8.80
2023-04-25T02:42:49.746Z,8.70
2023-04-25T02:47:52.797Z,8.70
2023-04-25T02:52:55.796Z,8.70
2023-04-25T02:58:03.702Z,8.60
2023-04-25T03:03:26.378Z,8.50
2023-04-25T03:08:33.525Z,8.40
2023-04-25T03:13:36.916Z,8.30
2023-04-25T03:18:40.356Z,8.30
2023-04-25T03:23:42.858Z,8.30
2023-04-25T03:28:45.356Z,8.20
2023-04-25T03:33:49.495Z,8.10
2023-04-25T03:38:54.848Z,8.10
2023-04-25T03:43:58.434Z,8.10
2023-04-25T03:49:01.731Z,8.10
2023-04-25T03:54:18.332Z,8.10
2023-04-25T03:59:31.465Z,8.10
2023-04-25T04:04:34.178Z,8.10
2023-04-25T04:09:37.500Z,8.20
2023-04-25T04:14:44.651Z,8.20
2023-04-25T04:19:47.140Z,8.10
2023-04-25T04:24:55.413Z,8.20
2023-04-25T04:30:14.209Z,8.30
2023-04-25T04:35:31.868Z,8.40
2023-04-25T04:40:35.882Z,8.60
2023-04-25T04:46:05.464Z,8.50
2023-04-25T04:51:37.570Z,8.50
2023-04-25T04:57:00.660Z,8.60
2023-04-25T05:02:12.337Z,8.70
2023-04-25T05:07:33.209Z,8.80
2023-04-25T05:12:41.454Z,8.80
2023-04-25T05:18:09.308Z,9.00
2023-04-25T05:23:23.456Z,9.10
2023-04-25T05:28:39.248Z,9.10
2023-04-25T05:33:44.800Z,9.30
2023-04-25T05:38:48.187Z,9.50
2023-04-25T05:43:51.488Z,9.70
2023-04-25T05:49:09.910Z,9.70
2023-04-25T05:54:19.697Z,9.80
2023-04-25T05:59:22.440Z,9.70
2023-04-25T06:04:26.696Z,9.70
2023-04-25T06:09:30.529Z,9.70
2023-04-25T06:14:33.067Z,9.90
2023-04-25T06:19:37.326Z,10.10
2023-04-25T06:24:40.383Z,10.50
2023-04-25T06:29:43.760Z,10.60
2023-04-25T06:34:46.686Z,10.80
2023-04-25T06:39:49.331Z,10.50
2023-04-25T06:44:52.302Z,10.60
2023-04-25T06:49:56.312Z,10.80
2023-04-25T06:54:59.594Z,10.70
2023-04-25T07:00:22.127Z,11.00
2023-04-25T07:05:24.933Z,11.10
2023-04-25T07:10:31.009Z,11.10
2023-04-25T07:15:33.844Z,11.30
2023-04-25T07:20:37.932Z,11.30
2023-04-25T07:25:40.888Z,11.40
2023-04-25T07:30:44.638Z,11.40
2023-04-25T07:35:47.112Z,11.30
2023-04-25T07:40:51.017Z,11.60
2023-04-25T07:45:53.604Z,11.60
2023-04-25T07:50:57.552Z,11.70
2023-04-25T07:56:00.485Z,12.20
2023-04-25T08:01:06.688Z,12.50
2023-04-25T08:06:32.723Z,12.40
2023-04-25T08:11:44.492Z,12.20
2023-04-25T08:16:50.698Z,12.00
2023-04-25T08:21:56.717Z,12.10
2023-04-25T08:27:05.586Z,12.20
2023-04-25T08:32:08.161Z,12.20
2023-04-25T08:37:15.236Z,12.10
2023-04-25T08:42:30.051Z,12.40
2023-04-25T08:47:38.373Z,12.90
2023-04-25T08:52:47.113Z,13.00
2023-04-25T08:57:51.849Z,13.00
2023-04-25T09:02:56.236Z,13.10
2023-04-25T09:07:59.360Z,13.00
2023-04-25T09:13:14.065Z,12.90
2023-04-25T09:18:36.604Z,12.80
2023-04-25T09:23:43.252Z,13.10
2023-04-25T09:28:46.945Z,13.20
2023-04-25T09:33:59.838Z,13.00
2023-04-25T09:39:04.706Z,12.90
2023-04-25T09:44:14.233Z,13.00
2023-04-25T09:49:21.373Z,13.50
2023-04-25T09:54:40.540Z,13.40
2023-04-25T09:59:54.315Z,13.50
2023-04-25T10:04:57.723Z,13.00
2023-04-25T10:10:12.765Z,12.90
2023-04-25T10:15:17.373Z,13.00
2023-04-25T10:20:25.801Z,13.00
2023-04-25T10:25:28.547Z,13.50
2023-04-25T10:30:38.054Z,13.50
2023-04-25T10:35:41.661Z,13.00
2023-04-25T10:41:05.080Z,12.70
2023-04-25T10:46:32.985Z,12.70
2023-04-25T10:51:54.513Z,12.80
2023-04-25T10:56:59.991Z,13.10
2023-04-25T11:02:14.688Z,13.10
2023-04-25T11:07:34.461Z,12.90
2023-04-25T11:12:37.009Z,12.70
2023-04-25T11:17:41.737Z,12.40
2023-04-25T11:22:50.360Z,12.50
2023-04-25T11:27:55.826Z,13.10
2023-04-25T11:32:58.665Z,13.80
2023-04-25T11:38:02.424Z,14.60
2023-04-25T11:43:04.861Z,15.10
2023-04-25T11:48:07.384Z,14.80
2023-04-25T11:53:09.901Z,14.00
2023-04-25T11:58:14.621Z,14.40
2023-04-25T12:03:19.191Z,14.30
2023-04-25T12:08:22.093Z,13.90
2023-04-25T12:13:26.765Z,13.90
2023-04-25T12:18:29.417Z,13.80
2023-04-25T12:23:32.689Z,13.40
2023-04-25T12:28:35.462Z,13.00
2023-04-25T12:33:39.220Z,12.90
2023-04-25T12:38:43.295Z,13.00
2023-04-25T12:43:45.838Z,13.50
2023-04-25T12:48:51.021Z,13.90
2023-04-25T12:53:53.676Z,13.60
2023-04-25T12:58:56.517Z,13.40
2023-04-25T13:03:59.442Z,13.60
2023-04-25T13:09:02.648Z,14.10
2023-04-25T13:14:06.120Z,14.40
2023-04-25T13:19:09.459Z,15.40
2023-04-25T13:24:11.911Z,16.40
2023-04-25T13:29:14.528Z,15.80
2023-04-25T13:34:17.089Z,14.90
2023-04-25T13:39:19.495Z,13.20
2023-04-25T13:44:21.901Z,11.90
2023-04-25T13:49:24.274Z,11.70
2023-04-25T13:54:27.021Z,11.50
2023-04-25T13:59:29.881Z,11.50
2023-04-25T14:04:33.588Z,11.80
2023-04-25T14:09:36.623Z,12.30
2023-04-25T14:14:39.246Z,12.60
2023-04-25T14:25:16.229Z,12.90
2023-04-25T14:30:20.272Z,13.10
2023-04-25T14:35:25.141Z,13.00
2023-04-25T14:40:28.407Z,12.40
2023-04-25T14:45:31.087Z,12.00
2023-04-25T14:50:33.945Z,11.60
2023-04-25T14:55:36.544Z,11.70
2023-04-25T15:00:39.238Z,11.90
2023-04-25T15:05:42.437Z,12.10
2023-04-25T15:10:46.427Z,12.30
2023-04-25T15:15:52.428Z,12.40
2023-04-25T15:20:55.241Z,12.40
2023-04-25T15:25:57.745Z,12.80
2023-04-25T15:31:00.412Z,12.80
2023-04-25T15:36:04.460Z,12.80
2023-04-25T15:41:07.103Z,12.60
2023-04-25T15:46:09.635Z,12.40
2023-04-25T15:51:12.605Z,12.40
2023-04-25T15:56:15.051Z,12.40
2023-04-25T16:01:17.646Z,12.40
2023-04-25T16:06:20.658Z,12.30
2023-04-25T16:11:23.468Z,12.20
2023-04-25T16:16:26.580Z,11.90
2023-04-25T16:21:29.129Z,11.70
2023-04-25T16:26:31.604Z,11.40
2023-04-25T16:31:38.101Z,11.40
2023-04-25T16:36:41.515Z,11.30
2023-04-25T16:41:44.036Z,11.40
2023-04-25T16:46:46.519Z,11.20
2023-04-25T16:51:49.148Z,11.30
2023-04-25T16:56:52.622Z,11.30
2023-04-25T17:01:55.135Z,11.30
2023-04-25T17:06:58.014Z,11.60
2023-04-25T17:12:00.639Z,11.70
2023-04-25T17:17:03.863Z,11.80
2023-04-25T17:22:07.245Z,11.60
2023-04-25T17:27:10.629Z,11.60
2023-04-25T17:32:14.623Z,11.30
2023-04-25T17:37:19.007Z,10.90
2023-04-25T17:42:21.621Z,10.80
2023-04-25T17:47:24.367Z,10.70
2023-04-25T17:52:52.362Z,10.50
2023-04-25T17:57:56.074Z,10.40
2023-04-25T18:03:24.329Z,10.20
2023-04-25T18:08:27.462Z,10.00
2023-04-25T18:13:30.091Z,9.90
2023-04-25T18:18:34.630Z,9.70
2023-04-25T18:23:37.529Z,9.60
2023-04-25T18:28:39.968Z,9.40
2023-04-25T18:33:42.631Z,9.30
2023-04-25T18:38:45.179Z,9.20
2023-04-25T18:43:47.880Z,8.90
2023-04-25T18:48:53.840Z,8.90
2023-04-25T18:54:00.515Z,8.80
2023-04-25T18:59:03.201Z,8.80
2023-04-25T19:04:07.016Z,8.70
2023-04-25T19:09:10.640Z,8.60
2023-04-25T19:14:14.569Z,8.60
2023-04-25T19:19:17.062Z,8.50
2023-04-25T19:24:19.596Z,8.50
2023-04-25T19:29:22.266Z,8.30
2023-04-25T19:34:24.849Z,8.20
2023-04-25T19:39:28.056Z,8.20
2023-04-25T19:44:30.614Z,8.20
2023-04-25T19:49:33.111Z,8.20
2023-04-25T19:54:35.618Z,8.10
2023-04-25T19:59:38.605Z,8.20
2023-04-25T20:04:41.955Z,8.40
2023-04-25T20:09:45.026Z,8.50
2023-04-25T20:14:47.711Z,8.60
2023-04-25T20:19:50.477Z,8.60
2023-04-25T20:24:52.940Z,8.60
2023-04-25T20:29:55.505Z,8.70
2023-04-25T20:34:58.378Z,8.70
2023-04-25T20:40:03.297Z,8.70
2023-04-25T20:45:08.031Z,8.60
2023-04-25T20:50:12.241Z,8.60
2023-04-25T20:55:14.843Z,8.70
2023-04-25T21:00:18.552Z,8.60
2023-04-25T21:05:22.388Z,8.70
2023-04-25T21:10:25.215Z,8.60
2023-04-25T21:15:28.241Z,8.60
2023-04-25T21:20:30.823Z,8.50
2023-04-25T21:25:33.822Z,8.50
2023-04-25T21:30:36.355Z,8.40
2023-04-25T21:35:39.973Z,8.40
2023-04-25T21:40:42.481Z,8.30
2023-04-25T21:50:55.772Z,8.30
2023-04-25T21:55:58.274Z,8.30
2023-04-25T22:01:00.932Z,8.20
2023-04-25T22:06:04.038Z,8.20
2023-04-25T22:11:07.843Z,8.20
2023-04-25T22:16:12.284Z,8.20
2023-04-25T22:21:15.102Z,8.10
2023-04-25T22:26:18.102Z,8.10
2023-04-25T22:31:20.746Z,7.90
2023-04-25T22:36:24.152Z,7.90
2023-04-25T22:41:26.825Z,7.80
2023-04-25T22:46:30.046Z,7.70
2023-04-25T22:51:33.259Z,7.60
2023-04-25T22:56:35.707Z,7.50
2023-04-25T23:01:38.242Z,7.40
2023-04-25T23:06:41.064Z,7.40
2023-04-25T23:11:43.702Z,7.40
2023-04-25T23:16:46.355Z,7.40
2023-04-25T23:21:48.940Z,7.30
2023-04-25T23:26:52.002Z,7.30
2023-04-25T23:31:54.480Z,7.30
2023-04-25T23:36:58.107Z,7.30
2023-04-25T23:42:00.631Z,7.30
2023-04-25T23:47:03.185Z,7.30
2023-04-25T23:52:05.864Z,7.30
2023-04-25T23:57:08.378Z,7.20
